createdAt,value
2023-03-11T00:00:30.123Z,6.08
2023-03-11T00:03:32.684Z,6.30
2023-03-11T00:06:36.058Z,6.52
2023-03-11T00:09:38.730Z,6.72
2023-03-11T00:12:41.331Z,6.61
2023-03-11T00:15:45.845Z,6.92
2023-03-11T00:18:50.923Z,7.01
2023-03-11T00:21:53.671Z,7.07
2023-03-11T00:24:56.251Z,7.11
2023-03-11T00:27:59.482Z,6.96
2023-03-11T00:31:02.773Z,6.71
2023-03-11T00:34:05.401Z,6.59
2023-03-11T00:37:09.102Z,6.52
2023-03-11T00:40:14.100Z,6.79
2023-03-11T00:43:17.561Z,6.60
2023-03-11T00:46:20.621Z,6.15
2023-03-11T00:49:23.454Z,6.60
2023-03-11T00:52:26.140Z,6.28
2023-03-11T00:55:31.263Z,5.96
2023-03-11T00:58:35.981Z,6.33
2023-03-11T01:01:39.050Z,6.33
2023-03-11T01:04:41.768Z,6.32
2023-03-11T01:07:44.273Z,6.28
2023-03-11T01:10:46.836Z,6.11
2023-03-11T01:13:49.542Z,6.01
2023-03-11T01:16:53.925Z,6.02
2023-03-11T01:19:56.576Z,6.25
2023-03-11T01:22:59.207Z,6.23
2023-03-11T01:26:01.791Z,6.25
2023-03-11T01:29:04.546Z,6.11
2023-03-11T01:32:07.684Z,6.25
2023-03-11T01:35:15.199Z,6.49
2023-03-11T01:38:17.851Z,6.57
2023-03-11T01:41:20.464Z,6.88
2023-03-11T01:44:23.295Z,6.97
2023-03-11T01:47:39.954Z,7.19
2023-03-11T01:50:49.831Z,7.24
2023-03-11T01:53:54.140Z,7.31
2023-03-11T01:56:57.693Z,7.23
2023-03-11T02:00:02.207Z,7.31
2023-03-11T02:03:19.184Z,7.34
2023-03-11T02:06:23.747Z,7.32
2023-03-11T02:09:27.174Z,7.22
2023-03-11T02:12:34.460Z,6.88
2023-03-11T02:15:39.574Z,7.04
2023-03-11T02:18:43.073Z,7.47
2023-03-11T02:21:45.814Z,7.43
2023-03-11T02:25:09.639Z,7.53
2023-03-11T02:28:15.024Z,7.50
2023-03-11T02:31:18.388Z,7.62
2023-03-11T02:34:27.706Z,7.70
2023-03-11T02:37:30.414Z,7.58
2023-03-11T02:40:50.359Z,7.59
2023-03-11T02:43:55.339Z,7.58
2023-03-11T02:47:00.949Z,7.39
2023-03-11T02:50:05.403Z,7.38
2023-03-11T02:53:08.995Z,7.28
2023-03-11T02:56:11.608Z,6.83
2023-03-11T02:59:14.139Z,7.05
2023-03-11T03:02:16.973Z,7.11
2023-03-11T03:05:21.595Z,7.13
2023-03-11T03:08:24.990Z,7.12
2023-03-11T03:11:27.814Z,7.38
2023-03-11T03:14:30.542Z,7.51
2023-03-11T03:17:33.128Z,7.61
2023-03-11T03:20:35.998Z,7.38
2023-03-11T03:23:38.724Z,7.47
2023-03-11T03:26:41.477Z,7.38
2023-03-11T03:29:44.186Z,7.38
2023-03-11T03:32:47.666Z,6.93
2023-03-11T03:35:52.457Z,6.91
2023-03-11T03:39:01.741Z,6.78
2023-03-11T03:42:08.775Z,6.49
2023-03-11T03:45:15.700Z,6.86
2023-03-11T03:48:18.842Z,7.33
2023-03-11T03:51:21.725Z,7.08
2023-03-11T03:54:53.591Z,7.04
2023-03-11T03:57:56.346Z,7.04
2023-03-11T04:01:01.985Z,6.38
2023-03-11T04:04:05.241Z,6.02
2023-03-11T04:07:08.507Z,5.92
2023-03-11T04:10:14.417Z,6.06
2023-03-11T04:13:18.069Z,6.06
2023-03-11T04:16:23.064Z,6.02
2023-03-11T04:19:28.017Z,5.90
2023-03-11T04:22:30.924Z,6.14
2023-03-11T04:25:34.898Z,5.98
2023-03-11T04:28:38.524Z,5.83
2023-03-11T04:31:41.376Z,5.75
2023-03-11T04:34:45.035Z,5.62
2023-03-11T04:37:49.718Z,5.66
2023-03-11T04:40:52.858Z,5.71
2023-03-11T04:43:55.459Z,5.76
2023-03-11T04:46:58.298Z,5.80
2023-03-11T04:50:01.343Z,5.96
2023-03-11T04:53:04.137Z,6.09
2023-03-11T04:56:07.167Z,6.50
2023-03-11T04:59:11.726Z,6.64
2023-03-11T05:02:15.917Z,6.58
2023-03-11T05:05:26.498Z,6.69
2023-03-11T05:08:29.058Z,6.63
2023-03-11T05:11:31.669Z,6.18
2023-03-11T05:14:34.406Z,6.50
2023-03-11T05:17:37.248Z,6.56
2023-03-11T05:20:41.127Z,6.55
2023-03-11T05:23:45.573Z,6.46
2023-03-11T05:26:50.077Z,6.47
2023-03-11T05:29:52.888Z,6.54
2023-03-11T05:32:56.824Z,6.56
2023-03-11T05:36:06.034Z,6.13
2023-03-11T05:39:09.026Z,6.37
2023-03-11T05:42:12.243Z,6.42
2023-03-11T05:45:15.914Z,6.47
2023-03-11T05:48:21.381Z,6.43
2023-03-11T05:51:24.478Z,6.37
2023-03-11T05:54:27.300Z,6.36
2023-03-11T05:57:30.556Z,6.39
2023-03-11T06:00:33.742Z,6.30
2023-03-11T06:03:40.053Z,6.14
2023-03-11T06:06:42.741Z,6.24
2023-03-11T06:09:45.927Z,6.11
2023-03-11T06:12:53.047Z,6.05
2023-03-11T06:16:00.908Z,6.07
2023-03-11T06:19:03.759Z,5.96
2023-03-11T06:22:10.725Z,5.63
2023-03-11T06:25:13.762Z,5.95
2023-03-11T06:28:18.099Z,5.89
2023-03-11T06:31:25.393Z,5.80
2023-03-11T06:34:29.000Z,5.81
2023-03-11T06:37:31.659Z,5.79
2023-03-11T06:40:34.261Z,5.79
2023-03-11T06:43:36.955Z,5.79
2023-03-11T06:46:40.637Z,5.86
2023-03-11T06:49:43.562Z,5.96
2023-03-11T06:52:46.433Z,5.98
2023-03-11T06:56:04.490Z,5.90
2023-03-11T06:59:10.310Z,6.10
2023-03-11T07:02:13.883Z,6.03
2023-03-11T07:05:18.297Z,6.16
2023-03-11T07:08:21.795Z,6.33
2023-03-11T07:11:28.211Z,6.04
2023-03-11T07:14:38.039Z,6.40
2023-03-11T07:17:40.720Z,6.43
2023-03-11T07:20:44.059Z,6.35
2023-03-11T07:23:46.852Z,6.45
2023-03-11T07:26:49.391Z,6.50
2023-03-11T07:29:51.944Z,6.51
2023-03-11T07:32:54.498Z,6.47
2023-03-11T07:35:57.241Z,6.16
2023-03-11T07:39:04.484Z,6.28
2023-03-11T07:42:07.318Z,6.34
2023-03-11T07:45:11.628Z,6.29
2023-03-11T07:48:14.863Z,6.37
2023-03-11T07:51:26.562Z,6.47
2023-03-11T07:54:29.472Z,6.38
2023-03-11T07:57:32.001Z,6.26
2023-03-11T08:00:34.603Z,6.30
2023-03-11T08:03:37.708Z,6.29
2023-03-11T08:06:43.074Z,5.93
2023-03-11T08:09:45.607Z,6.47
2023-03-11T08:12:48.187Z,6.49
2023-03-11T08:15:50.708Z,6.49
2023-03-11T08:18:53.515Z,6.52
2023-03-11T08:21:57.384Z,6.56
2023-03-11T08:24:59.986Z,6.59
2023-03-11T08:28:02.720Z,6.50
2023-03-11T08:31:13.388Z,6.31
2023-03-11T08:34:16.148Z,6.58
2023-03-11T08:37:18.765Z,6.57
2023-03-11T08:40:21.346Z,6.44
2023-03-11T08:43:23.857Z,6.45
2023-03-11T08:46:32.865Z,6.46
2023-03-11T08:49:36.448Z,6.75
2023-03-11T08:52:38.993Z,6.70
2023-03-11T08:55:41.560Z,6.61
2023-03-11T08:58:44.154Z,6.74
2023-03-11T09:01:47.045Z,6.36
2023-03-11T09:04:49.644Z,6.34
2023-03-11T09:07:52.239Z,6.37
2023-03-11T09:10:54.857Z,6.63
2023-03-11T09:13:57.684Z,6.99
2023-03-11T09:17:00.440Z,6.67
2023-03-11T09:20:04.233Z,6.50
2023-03-11T09:23:07.255Z,6.80
2023-03-11T09:26:09.868Z,7.10
2023-03-11T09:29:12.518Z,6.90
2023-03-11T09:32:15.791Z,7.03
2023-03-11T09:35:18.461Z,7.21
2023-03-11T09:38:21.064Z,7.00
2023-03-11T09:41:58.038Z,7.41
2023-03-11T09:45:10.054Z,7.29
2023-03-11T09:48:32.420Z,7.50
2023-03-11T09:51:42.000Z,7.42
2023-03-11T09:54:51.077Z,7.25
2023-03-11T09:57:54.956Z,7.60
2023-03-11T10:00:57.718Z,7.68
2023-03-11T10:04:40.105Z,7.76
2023-03-11T10:07:47.512Z,7.52
2023-03-11T10:11:11.251Z,7.50
2023-03-11T10:14:25.957Z,7.55
2023-03-11T10:17:40.575Z,7.75
2023-03-11T10:20:55.808Z,7.72
2023-03-11T10:24:32.230Z,7.99
2023-03-11T10:27:57.085Z,7.70
2023-03-11T10:31:19.033Z,7.77
2023-03-11T10:34:44.275Z,7.91
2023-03-11T10:37:54.972Z,7.90
2023-03-11T10:41:01.551Z,7.88
2023-03-11T10:44:13.901Z,7.66
2023-03-11T10:47:23.169Z,7.82
2023-03-11T10:50:25.850Z,7.75
2023-03-11T10:53:29.184Z,8.09
2023-03-11T10:56:40.602Z,8.20
2023-03-11T10:59:48.690Z,8.35
2023-03-11T11:02:53.967Z,8.52
2023-03-11T11:06:06.030Z,8.39
2023-03-11T11:09:21.252Z,8.79
2023-03-11T11:12:23.748Z,8.66
2023-03-11T11:15:35.449Z,8.84
2023-03-11T11:18:59.648Z,8.61
2023-03-11T11:22:06.171Z,8.54
2023-03-11T11:25:30.337Z,8.43
2023-03-11T11:28:34.071Z,8.45
2023-03-11T11:31:46.619Z,8.16
2023-03-11T11:35:01.409Z,7.80
2023-03-11T11:38:04.386Z,8.07
2023-03-11T11:41:09.561Z,8.36
2023-03-11T11:44:16.017Z,8.07
2023-03-11T11:47:30.130Z,7.66
2023-03-11T11:50:44.759Z,7.45
2023-03-11T11:53:50.510Z,7.42
2023-03-11T11:56:55.000Z,7.49
2023-03-11T11:59:57.794Z,7.68
2023-03-11T12:03:10.586Z,7.68
2023-03-11T12:06:32.852Z,7.26
2023-03-11T12:09:50.669Z,7.51
2023-03-11T12:12:58.916Z,7.52
2023-03-11T12:16:19.416Z,7.41
2023-03-11T12:19:39.786Z,7.27
2023-03-11T12:23:05.726Z,7.58
2023-03-11T12:26:21.889Z,7.63
2023-03-11T12:29:37.304Z,7.73
2023-03-11T12:33:22.524Z,7.77
2023-03-11T12:36:37.655Z,8.13
2023-03-11T12:39:40.317Z,7.54
2023-03-11T12:42:42.780Z,7.44
2023-03-11T12:45:51.294Z,7.35
2023-03-11T12:49:12.063Z,7.43
2023-03-11T12:52:14.529Z,7.55
2023-03-11T12:55:16.991Z,7.34
2023-03-11T12:59:04.427Z,7.40
2023-03-11T13:02:09.732Z,7.53
2023-03-11T13:05:48.220Z,7.20
2023-03-11T13:08:54.972Z,7.29
2023-03-11T13:11:57.693Z,7.44
2023-03-11T13:15:18.407Z,7.35
2023-03-11T13:18:33.348Z,7.44
2023-03-11T13:21:39.273Z,7.58
2023-03-11T13:24:49.408Z,7.41
2023-03-11T13:27:56.055Z,7.50
2023-03-11T13:31:05.266Z,7.90
2023-03-11T13:34:26.302Z,7.80
2023-03-11T13:37:41.144Z,7.82
2023-03-11T13:40:45.421Z,7.21
2023-03-11T13:43:50.658Z,7.41
2023-03-11T13:46:58.453Z,7.21
2023-03-11T13:50:13.111Z,7.02
2023-03-11T13:53:43.162Z,7.19
2023-03-11T13:56:51.120Z,6.90
2023-03-11T13:59:57.022Z,7.22
2023-03-11T14:03:04.863Z,7.48
2023-03-11T14:06:12.384Z,7.64
2023-03-11T14:09:23.774Z,7.60
2023-03-11T14:12:31.102Z,7.20
2023-03-11T14:15:43.936Z,6.88
2023-03-11T14:19:04.021Z,6.85
2023-03-11T14:22:09.196Z,6.88
2023-03-11T14:25:18.915Z,6.83
2023-03-11T14:28:21.865Z,6.62
2023-03-11T14:31:41.921Z,6.32
2023-03-11T14:34:46.068Z,6.34
2023-03-11T14:37:49.080Z,6.21
2023-03-11T14:41:02.633Z,6.40
2023-03-11T14:44:05.914Z,8.29
2023-03-11T14:47:20.025Z,8.82
2023-03-11T14:50:35.247Z,8.68
2023-03-11T14:53:45.718Z,8.85
2023-03-11T14:56:53.019Z,9.58
2023-03-11T14:59:57.049Z,9.22
2023-03-11T15:03:24.966Z,9.09
2023-03-11T15:06:29.438Z,9.60
2023-03-11T15:09:32.809Z,9.88
2023-03-11T15:12:43.692Z,9.74
2023-03-11T15:15:55.384Z,10.79
2023-03-11T15:19:23.586Z,9.71
2023-03-11T15:22:30.260Z,9.64
2023-03-11T15:25:36.673Z,9.48
2023-03-11T15:28:39.953Z,9.18
2023-03-11T15:31:46.821Z,8.99
2023-03-11T15:35:22.253Z,9.65
2023-03-11T15:38:28.477Z,9.99
2023-03-11T15:41:31.097Z,9.55
2023-03-11T15:44:36.522Z,9.66
2023-03-11T15:47:39.720Z,9.08
2023-03-11T15:50:54.834Z,8.97
2023-03-11T15:53:57.653Z,9.26
2023-03-11T15:57:01.371Z,8.80
2023-03-11T16:00:05.078Z,8.57
2023-03-11T16:03:09.616Z,8.30
2023-03-11T16:06:12.168Z,8.34
2023-03-11T16:09:16.888Z,7.90
2023-03-11T16:12:21.464Z,7.78
2023-03-11T16:15:28.697Z,7.43
2023-03-11T16:18:32.520Z,6.91
2023-03-11T16:21:37.905Z,6.19
2023-03-11T16:24:40.789Z,6.43
2023-03-11T16:27:43.520Z,6.02
2023-03-11T16:30:46.787Z,6.14
2023-03-11T16:33:49.434Z,5.50
2023-03-11T16:36:52.065Z,5.21
2023-03-11T16:39:54.684Z,4.93
2023-03-11T16:43:08.460Z,4.84
2023-03-11T16:46:11.105Z,4.67
2023-03-11T16:49:13.752Z,4.59
2023-03-11T16:52:20.193Z,4.56
2023-03-11T16:55:23.876Z,4.31
2023-03-11T16:58:26.597Z,4.16
2023-03-11T17:01:29.254Z,4.25
2023-03-11T17:04:32.095Z,4.17
2023-03-11T17:07:35.901Z,4.09
2023-03-11T17:10:43.617Z,3.98
2023-03-11T17:13:46.517Z,3.98
2023-03-11T17:16:49.330Z,3.96
2023-03-11T17:19:52.005Z,3.89
2023-03-11T17:22:54.554Z,3.83
2023-03-11T17:25:57.358Z,3.96
2023-03-11T17:29:00.140Z,3.92
2023-03-11T17:32:03.837Z,3.83
2023-03-11T17:35:07.182Z,3.78
2023-03-11T17:38:09.954Z,3.74
2023-03-11T17:41:15.310Z,3.62
2023-03-11T17:44:18.108Z,3.60
2023-03-11T17:47:21.420Z,3.50
2023-03-11T17:50:24.253Z,3.47
2023-03-11T17:53:26.970Z,3.40
2023-03-11T17:56:29.747Z,3.42
2023-03-11T17:59:32.440Z,3.47
2023-03-11T18:02:35.297Z,3.42
2023-03-11T18:05:39.777Z,3.34
2023-03-11T18:08:42.964Z,3.23
2023-03-11T18:11:45.741Z,3.19
2023-03-11T18:14:48.576Z,3.10
2023-03-11T18:17:51.237Z,3.02
2023-03-11T18:20:54.029Z,3.25
2023-03-11T18:23:57.952Z,3.07
2023-03-11T18:27:00.767Z,3.08
2023-03-11T18:30:08.232Z,3.11
2023-03-11T18:33:10.974Z,2.98
2023-03-11T18:36:25.505Z,2.96
2023-03-11T18:39:28.314Z,2.85
2023-03-11T18:42:32.407Z,2.91
2023-03-11T18:45:35.247Z,2.75
2023-03-11T18:48:38.477Z,2.77
2023-03-11T18:51:41.419Z,2.88
2023-03-11T18:54:45.300Z,2.81
2023-03-11T18:57:47.904Z,2.79
2023-03-11T19:00:51.875Z,2.80
2023-03-11T19:03:56.754Z,2.57
2023-03-11T19:06:59.469Z,2.61
2023-03-11T19:10:02.135Z,2.75
2023-03-11T19:13:04.884Z,2.64
2023-03-11T19:16:09.007Z,2.72
2023-03-11T19:19:12.214Z,2.76
2023-03-11T19:22:14.903Z,2.71
2023-03-11T19:25:19.278Z,2.80
2023-03-11T19:28:22.720Z,2.73
2023-03-11T19:31:25.467Z,2.59
2023-03-11T19:34:29.029Z,2.68
2023-03-11T19:37:31.939Z,2.49
2023-03-11T19:40:34.677Z,2.55
2023-03-11T19:43:37.396Z,2.56
2023-03-11T19:46:40.248Z,2.50
2023-03-11T19:49:42.962Z,2.36
2023-03-11T19:52:45.882Z,2.29
2023-03-11T19:55:52.918Z,2.38
2023-03-11T19:58:56.863Z,2.46
2023-03-11T20:01:59.683Z,2.44
2023-03-11T20:05:02.542Z,2.41
2023-03-11T20:08:06.887Z,2.44
2023-03-11T20:11:09.823Z,2.39
2023-03-11T20:14:13.156Z,2.51
2023-03-11T20:17:16.036Z,2.30
2023-03-11T20:20:18.691Z,2.23
2023-03-11T20:23:21.412Z,2.25
2023-03-11T20:26:25.109Z,2.16
2023-03-11T20:29:27.848Z,2.24
2023-03-11T20:32:31.095Z,2.28
2023-03-11T20:35:34.412Z,2.25
2023-03-11T20:38:37.415Z,1.99
2023-03-11T20:41:40.793Z,2.23
2023-03-11T20:44:43.588Z,2.12
2023-03-11T20:47:46.496Z,2.21
2023-03-11T20:50:49.409Z,2.09
2023-03-11T20:53:52.473Z,2.01
2023-03-11T20:56:55.383Z,1.93
2023-03-11T20:59:58.161Z,2.03
2023-03-11T21:03:01.145Z,1.99
2023-03-11T21:06:04.387Z,1.97
2023-03-11T21:09:11.575Z,2.05
2023-03-11T21:12:14.316Z,2.10
2023-03-11T21:15:17.154Z,2.04
2023-03-11T21:18:19.688Z,2.04
2023-03-11T21:21:22.597Z,2.09
2023-03-11T21:24:25.208Z,1.95
2023-03-11T21:27:27.893Z,2.01
2023-03-11T21:30:30.548Z,2.07
2023-03-11T21:33:33.613Z,2.07
2023-03-11T21:36:37.985Z,2.05
2023-03-11T21:39:40.720Z,2.03
2023-03-11T21:42:43.264Z,1.94
2023-03-11T21:45:46.932Z,1.92
2023-03-11T21:48:49.934Z,1.83
2023-03-11T21:51:52.682Z,1.99
2023-03-11T21:54:56.557Z,1.89
2023-03-11T21:57:59.389Z,1.86
2023-03-11T22:01:02.158Z,1.83
2023-03-11T22:04:05.185Z,1.84
2023-03-11T22:07:08.138Z,1.83
2023-03-11T22:10:11.501Z,1.64
2023-03-11T22:13:14.193Z,1.71
2023-03-11T22:16:18.209Z,1.61
2023-03-11T22:19:20.894Z,1.59
2023-03-11T22:22:23.551Z,1.63
2023-03-11T22:25:26.197Z,1.59
2023-03-11T22:28:29.150Z,1.60
2023-03-11T22:31:31.858Z,1.63
2023-03-11T22:34:34.431Z,1.54
2023-03-11T22:37:37.012Z,1.44
2023-03-11T22:40:39.589Z,1.39
2023-03-11T22:43:42.170Z,1.36
2023-03-11T22:46:44.797Z,1.21
2023-03-11T22:49:47.658Z,1.03
2023-03-11T22:52:50.173Z,1.25
2023-03-11T22:55:53.153Z,1.16
2023-03-11T22:58:55.729Z,1.10
2023-03-11T23:01:58.559Z,1.09
2023-03-11T23:05:01.035Z,1.03
2023-03-11T23:08:03.770Z,0.96
2023-03-11T23:11:09.750Z,1.10
2023-03-11T23:14:12.232Z,1.03
2023-03-11T23:17:14.702Z,1.09
2023-03-11T23:20:17.568Z,0.97
2023-03-11T23:23:20.093Z,0.98
2023-03-11T23:26:23.348Z,0.90
2023-03-11T23:29:25.973Z,0.64
2023-03-11T23:32:28.839Z,0.84
2023-03-11T23:35:32.484Z,0.66
2023-03-11T23:38:36.144Z,0.56
2023-03-11T23:41:38.730Z,0.66
2023-03-11T23:45:00.080Z,0.60
2023-03-11T23:48:02.686Z,0.59
2023-03-11T23:51:05.886Z,0.61
2023-03-11T23:54:08.549Z,0.59
2023-03-11T23:57:11.107Z,0.49
